sensor_id;sensor_type;location;lat;lon;timestamp;P1;durP1;ratioP1;P2;durP2;ratioP2
71836;SDS011;59686;51.716;7.016;2023-04-24T00:00:30;1.52;;;1.33;;
71836;SDS011;59686;51.716;7.016;2023-04-24T00:02:56;1.95;;;1.30;;
71836;SDS011;59686;51.716;7.016;2023-04-24T00:05:23;2.78;;;1.10;;
71836;SDS011;59686;51.716;7.016;2023-04-24T00:07:49;2.28;;;1.20;;
71836;SDS011;59686;51.716;7.016;2023-04-24T00:10:17;2.33;;;1.30;;
71836;SDS011;59686;51.716;7.016;2023-04-24T00:12:45;3.47;;;1.55;;
71836;SDS011;59686;51.716;7.016;2023-04-24T00:15:11;2.15;;;1.17;;
71836;SDS011;59686;51.716;7.016;2023-04-24T00:17:37;1.85;;;1.20;;
71836;SDS011;59686;51.716;7.016;2023-04-24T00:20:03;1.23;;;1.13;;
71836;SDS011;59686;51.716;7.016;2023-04-24T00:22:32;1.52;;;1.05;;
71836;SDS011;59686;51.716;7.016;2023-04-24T00:24:57;1.67;;;1.08;;
71836;SDS011;59686;51.716;7.016;2023-04-24T00:27:24;1.65;;;1.00;;
71836;SDS011;59686;51.716;7.016;2023-04-24T00:29:50;1.88;;;1.23;;
71836;SDS011;59686;51.716;7.016;2023-04-24T00:32:16;2.22;;;1.30;;
71836;SDS011;59686;51.716;7.016;2023-04-24T00:34:42;1.65;;;1.00;;
71836;SDS011;59686;51.716;7.016;2023-04-24T00:37:10;1.98;;;1.50;;
71836;SDS011;59686;51.716;7.016;2023-04-24T00:39:36;1.10;;;1.00;;
71836;SDS011;59686;51.716;7.016;2023-04-24T00:42:02;1.45;;;1.10;;
71836;SDS011;59686;51.716;7.016;2023-04-24T00:44:27;1.35;;;1.23;;
71836;SDS011;59686;51.716;7.016;2023-04-24T00:46:53;1.52;;;1.35;;
71836;SDS011;59686;51.716;7.016;2023-04-24T00:49:23;2.45;;;1.20;;
71836;SDS011;59686;51.716;7.016;2023-04-24T00:51:49;1.35;;;1.25;;
71836;SDS011;59686;51.716;7.016;2023-04-24T00:54:16;3.17;;;1.48;;
71836;SDS011;59686;51.716;7.016;2023-04-24T00:56:42;2.28;;;1.60;;
71836;SDS011;59686;51.716;7.016;2023-04-24T00:59:10;2.60;;;1.40;;
71836;SDS011;59686;51.716;7.016;2023-04-24T01:01:37;2.65;;;1.42;;
71836;SDS011;59686;51.716;7.016;2023-04-24T01:04:07;2.08;;;1.60;;
71836;SDS011;59686;51.716;7.016;2023-04-24T01:06:34;2.60;;;1.98;;
71836;SDS011;59686;51.716;7.016;2023-04-24T01:09:03;1.60;;;1.50;;
71836;SDS011;59686;51.716;7.016;2023-04-24T01:11:29;1.50;;;1.40;;
71836;SDS011;59686;51.716;7.016;2023-04-24T01:13:55;2.78;;;1.40;;
71836;SDS011;59686;51.716;7.016;2023-04-24T01:16:22;2.55;;;1.55;;
71836;SDS011;59686;51.716;7.016;2023-04-24T01:18:47;2.20;;;1.40;;
71836;SDS011;59686;51.716;7.016;2023-04-24T01:21:14;2.60;;;1.70;;
71836;SDS011;59686;51.716;7.016;2023-04-24T01:23:42;1.90;;;1.67;;
71836;SDS011;59686;51.716;7.016;2023-04-24T01:26:08;2.38;;;1.60;;
71836;SDS011;59686;51.716;7.016;2023-04-24T01:28:34;3.80;;;2.03;;
71836;SDS011;59686;51.716;7.016;2023-04-24T01:31:00;3.22;;;1.88;;
71836;SDS011;59686;51.716;7.016;2023-04-24T01:33:26;5.07;;;2.00;;
71836;SDS011;59686;51.716;7.016;2023-04-24T01:35:52;2.10;;;1.65;;
71836;SDS011;59686;51.716;7.016;2023-04-24T01:38:18;4.53;;;1.80;;
71836;SDS011;59686;51.716;7.016;2023-04-24T01:40:44;2.28;;;1.85;;
71836;SDS011;59686;51.716;7.016;2023-04-24T01:43:12;3.05;;;2.10;;
71836;SDS011;59686;51.716;7.016;2023-04-24T01:45:38;3.15;;;1.88;;
71836;SDS011;59686;51.716;7.016;2023-04-24T01:48:04;2.58;;;1.98;;
71836;SDS011;59686;51.716;7.016;2023-04-24T01:50:30;2.15;;;1.80;;
71836;SDS011;59686;51.716;7.016;2023-04-24T01:52:55;1.95;;;1.73;;
71836;SDS011;59686;51.716;7.016;2023-04-24T01:55:21;3.05;;;2.00;;
71836;SDS011;59686;51.716;7.016;2023-04-24T01:57:47;2.65;;;2.10;;
71836;SDS011;59686;51.716;7.016;2023-04-24T02:00:13;2.70;;;1.88;;
71836;SDS011;59686;51.716;7.016;2023-04-24T02:02:39;2.50;;;2.30;;
71836;SDS011;59686;51.716;7.016;2023-04-24T02:05:06;2.80;;;1.98;;
71836;SDS011;59686;51.716;7.016;2023-04-24T02:07:33;2.63;;;2.30;;
71836;SDS011;59686;51.716;7.016;2023-04-24T02:09:58;3.10;;;2.40;;
71836;SDS011;59686;51.716;7.016;2023-04-24T02:12:24;3.35;;;2.30;;
71836;SDS011;59686;51.716;7.016;2023-04-24T02:14:50;2.90;;;2.38;;
71836;SDS011;59686;51.716;7.016;2023-04-24T02:17:15;4.30;;;2.70;;
71836;SDS011;59686;51.716;7.016;2023-04-24T02:19:41;3.70;;;2.50;;
71836;SDS011;59686;51.716;7.016;2023-04-24T02:22:07;3.65;;;2.53;;
71836;SDS011;59686;51.716;7.016;2023-04-24T02:24:33;4.32;;;2.80;;
71836;SDS011;59686;51.716;7.016;2023-04-24T02:26:59;4.10;;;2.90;;
71836;SDS011;59686;51.716;7.016;2023-04-24T02:29:25;5.68;;;3.28;;
71836;SDS011;59686;51.716;7.016;2023-04-24T02:31:50;4.68;;;3.40;;
71836;SDS011;59686;51.716;7.016;2023-04-24T02:34:16;5.70;;;3.22;;
71836;SDS011;59686;51.716;7.016;2023-04-24T02:36:48;5.57;;;3.35;;
71836;SDS011;59686;51.716;7.016;2023-04-24T02:39:14;4.43;;;2.92;;
71836;SDS011;59686;51.716;7.016;2023-04-24T02:41:41;5.18;;;3.55;;
71836;SDS011;59686;51.716;7.016;2023-04-24T02:44:08;4.70;;;3.55;;
71836;SDS011;59686;51.716;7.016;2023-04-24T02:46:34;4.30;;;3.55;;
71836;SDS011;59686;51.716;7.016;2023-04-24T02:49:00;5.40;;;3.70;;
71836;SDS011;59686;51.716;7.016;2023-04-24T02:51:26;7.22;;;4.03;;
71836;SDS011;59686;51.716;7.016;2023-04-24T02:53:52;4.50;;;3.97;;
71836;SDS011;59686;51.716;7.016;2023-04-24T02:56:17;6.75;;;4.25;;
71836;SDS011;59686;51.716;7.016;2023-04-24T02:58:43;6.45;;;4.25;;
71836;SDS011;59686;51.716;7.016;2023-04-24T03:01:09;5.35;;;3.78;;
71836;SDS011;59686;51.716;7.016;2023-04-24T03:03:35;7.10;;;4.47;;
71836;SDS011;59686;51.716;7.016;2023-04-24T03:06:01;7.18;;;4.25;;
71836;SDS011;59686;51.716;7.016;2023-04-24T03:08:27;6.22;;;4.35;;
71836;SDS011;59686;51.716;7.016;2023-04-24T03:10:53;6.05;;;4.38;;
71836;SDS011;59686;51.716;7.016;2023-04-24T03:13:18;8.40;;;5.15;;
71836;SDS011;59686;51.716;7.016;2023-04-24T03:15:44;8.65;;;5.38;;
71836;SDS011;59686;51.716;7.016;2023-04-24T03:18:11;7.82;;;5.05;;
71836;SDS011;59686;51.716;7.016;2023-04-24T03:20:40;9.57;;;5.75;;
71836;SDS011;59686;51.716;7.016;2023-04-24T03:23:06;7.43;;;5.53;;
71836;SDS011;59686;51.716;7.016;2023-04-24T03:25:31;8.38;;;5.28;;
71836;SDS011;59686;51.716;7.016;2023-04-24T03:27:57;8.23;;;5.70;;
71836;SDS011;59686;51.716;7.016;2023-04-24T03:30:23;9.80;;;5.50;;
71836;SDS011;59686;51.716;7.016;2023-04-24T03:32:48;8.57;;;5.63;;
71836;SDS011;59686;51.716;7.016;2023-04-24T03:35:14;7.53;;;6.00;;
71836;SDS011;59686;51.716;7.016;2023-04-24T03:37:40;7.97;;;6.07;;
71836;SDS011;59686;51.716;7.016;2023-04-24T03:40:06;7.93;;;5.57;;
71836;SDS011;59686;51.716;7.016;2023-04-24T03:42:33;7.95;;;6.18;;
71836;SDS011;59686;51.716;7.016;2023-04-24T03:44:58;7.45;;;5.63;;
71836;SDS011;59686;51.716;7.016;2023-04-24T03:47:24;11.45;;;5.80;;
71836;SDS011;59686;51.716;7.016;2023-04-24T03:49:50;8.38;;;6.15;;
71836;SDS011;59686;51.716;7.016;2023-04-24T03:52:16;8.50;;;6.13;;
71836;SDS011;59686;51.716;7.016;2023-04-24T03:54:41;9.07;;;6.13;;
71836;SDS011;59686;51.716;7.016;2023-04-24T03:57:11;8.45;;;6.10;;
71836;SDS011;59686;51.716;7.016;2023-04-24T03:59:37;10.88;;;6.50;;
71836;SDS011;59686;51.716;7.016;2023-04-24T04:02:02;9.07;;;6.20;;
71836;SDS011;59686;51.716;7.016;2023-04-24T04:04:28;8.10;;;6.65;;
71836;SDS011;59686;51.716;7.016;2023-04-24T04:06:54;9.32;;;6.65;;
71836;SDS011;59686;51.716;7.016;2023-04-24T04:09:19;9.20;;;6.82;;
71836;SDS011;59686;51.716;7.016;2023-04-24T04:11:45;8.75;;;6.25;;
71836;SDS011;59686;51.716;7.016;2023-04-24T04:14:17;10.85;;;7.40;;
71836;SDS011;59686;51.716;7.016;2023-04-24T04:16:42;9.23;;;6.80;;
71836;SDS011;59686;51.716;7.016;2023-04-24T04:19:08;9.55;;;6.93;;
71836;SDS011;59686;51.716;7.016;2023-04-24T04:21:34;10.68;;;7.55;;
71836;SDS011;59686;51.716;7.016;2023-04-24T04:23:59;9.05;;;7.07;;
71836;SDS011;59686;51.716;7.016;2023-04-24T04:26:25;11.25;;;7.57;;
71836;SDS011;59686;51.716;7.016;2023-04-24T04:28:54;10.32;;;6.78;;
71836;SDS011;59686;51.716;7.016;2023-04-24T04:31:20;9.85;;;7.47;;
71836;SDS011;59686;51.716;7.016;2023-04-24T04:33:46;9.85;;;7.15;;
71836;SDS011;59686;51.716;7.016;2023-04-24T04:36:11;11.95;;;7.18;;
71836;SDS011;59686;51.716;7.016;2023-04-24T04:38:37;14.00;;;7.45;;
71836;SDS011;59686;51.716;7.016;2023-04-24T04:41:03;12.38;;;7.28;;
71836;SDS011;59686;51.716;7.016;2023-04-24T04:43:30;8.35;;;7.20;;
71836;SDS011;59686;51.716;7.016;2023-04-24T04:45:56;10.77;;;7.05;;
71836;SDS011;59686;51.716;7.016;2023-04-24T04:48:22;15.52;;;7.80;;
71836;SDS011;59686;51.716;7.016;2023-04-24T04:50:48;11.98;;;8.07;;
71836;SDS011;59686;51.716;7.016;2023-04-24T04:53:14;10.98;;;7.32;;
71836;SDS011;59686;51.716;7.016;2023-04-24T04:55:40;11.85;;;6.97;;
71836;SDS011;59686;51.716;7.016;2023-04-24T04:58:05;10.55;;;7.13;;
71836;SDS011;59686;51.716;7.016;2023-04-24T05:00:31;10.98;;;7.18;;
71836;SDS011;59686;51.716;7.016;2023-04-24T05:03:00;11.07;;;7.10;;
71836;SDS011;59686;51.716;7.016;2023-04-24T05:05:26;10.50;;;7.13;;
71836;SDS011;59686;51.716;7.016;2023-04-24T05:07:52;7.93;;;7.03;;
71836;SDS011;59686;51.716;7.016;2023-04-24T05:10:18;10.63;;;7.03;;
71836;SDS011;59686;51.716;7.016;2023-04-24T05:12:54;9.23;;;7.22;;
71836;SDS011;59686;51.716;7.016;2023-04-24T05:15:20;7.93;;;6.32;;
71836;SDS011;59686;51.716;7.016;2023-04-24T05:17:45;9.90;;;7.05;;
71836;SDS011;59686;51.716;7.016;2023-04-24T05:20:11;7.60;;;6.85;;
71836;SDS011;59686;51.716;7.016;2023-04-24T05:22:37;8.98;;;6.90;;
71836;SDS011;59686;51.716;7.016;2023-04-24T05:25:02;9.07;;;6.82;;
71836;SDS011;59686;51.716;7.016;2023-04-24T05:27:28;9.93;;;7.07;;
71836;SDS011;59686;51.716;7.016;2023-04-24T05:29:54;12.10;;;7.47;;
71836;SDS011;59686;51.716;7.016;2023-04-24T05:32:20;10.13;;;7.03;;
71836;SDS011;59686;51.716;7.016;2023-04-24T05:34:46;9.57;;;6.70;;
71836;SDS011;59686;51.716;7.016;2023-04-24T05:37:11;7.25;;;6.30;;
71836;SDS011;59686;51.716;7.016;2023-04-24T05:39:37;9.35;;;7.05;;
71836;SDS011;59686;51.716;7.016;2023-04-24T05:42:04;10.10;;;6.78;;
71836;SDS011;59686;51.716;7.016;2023-04-24T05:44:30;7.53;;;6.10;;
71836;SDS011;59686;51.716;7.016;2023-04-24T05:46:55;8.10;;;6.20;;
71836;SDS011;59686;51.716;7.016;2023-04-24T05:49:22;9.80;;;6.53;;
71836;SDS011;59686;51.716;7.016;2023-04-24T05:51:48;6.35;;;5.75;;
71836;SDS011;59686;51.716;7.016;2023-04-24T05:54:13;8.50;;;6.28;;
71836;SDS011;59686;51.716;7.016;2023-04-24T05:56:39;8.82;;;5.82;;
71836;SDS011;59686;51.716;7.016;2023-04-24T05:59:05;8.50;;;5.28;;
71836;SDS011;59686;51.716;7.016;2023-04-24T06:01:32;6.55;;;5.45;;
71836;SDS011;59686;51.716;7.016;2023-04-24T06:03:58;6.28;;;5.00;;
71836;SDS011;59686;51.716;7.016;2023-04-24T06:06:24;7.07;;;5.38;;
71836;SDS011;59686;51.716;7.016;2023-04-24T06:08:52;8.23;;;5.75;;
71836;SDS011;59686;51.716;7.016;2023-04-24T06:11:18;6.65;;;5.07;;
71836;SDS011;59686;51.716;7.016;2023-04-24T06:13:43;8.07;;;5.35;;
71836;SDS011;59686;51.716;7.016;2023-04-24T06:16:09;6.93;;;5.38;;
71836;SDS011;59686;51.716;7.016;2023-04-24T06:18:35;5.80;;;5.18;;
71836;SDS011;59686;51.716;7.016;2023-04-24T06:21:00;6.32;;;5.47;;
71836;SDS011;59686;51.716;7.016;2023-04-24T06:23:26;9.98;;;5.60;;
71836;SDS011;59686;51.716;7.016;2023-04-24T06:25:51;7.50;;;6.05;;
71836;SDS011;59686;51.716;7.016;2023-04-24T06:28:17;8.18;;;6.22;;
71836;SDS011;59686;51.716;7.016;2023-04-24T06:30:43;7.80;;;6.00;;
71836;SDS011;59686;51.716;7.016;2023-04-24T06:33:09;7.43;;;6.00;;
71836;SDS011;59686;51.716;7.016;2023-04-24T06:35:35;6.70;;;5.60;;
71836;SDS011;59686;51.716;7.016;2023-04-24T06:38:04;6.00;;;5.40;;
71836;SDS011;59686;51.716;7.016;2023-04-24T06:40:29;6.35;;;5.35;;
71836;SDS011;59686;51.716;7.016;2023-04-24T06:42:55;6.45;;;5.70;;
71836;SDS011;59686;51.716;7.016;2023-04-24T06:45:22;7.53;;;5.93;;
71836;SDS011;59686;51.716;7.016;2023-04-24T06:47:48;6.82;;;6.13;;
71836;SDS011;59686;51.716;7.016;2023-04-24T06:50:14;6.38;;;5.63;;
71836;SDS011;59686;51.716;7.016;2023-04-24T06:52:45;6.68;;;5.50;;
71836;SDS011;59686;51.716;7.016;2023-04-24T06:55:10;6.15;;;5.15;;
71836;SDS011;59686;51.716;7.016;2023-04-24T06:57:36;6.07;;;5.47;;
71836;SDS011;59686;51.716;7.016;2023-04-24T07:00:04;7.60;;;5.40;;
71836;SDS011;59686;51.716;7.016;2023-04-24T07:02:31;5.72;;;5.15;;
71836;SDS011;59686;51.716;7.016;2023-04-24T07:04:57;7.13;;;5.28;;
71836;SDS011;59686;51.716;7.016;2023-04-24T07:07:23;7.15;;;5.60;;
71836;SDS011;59686;51.716;7.016;2023-04-24T07:09:48;9.30;;;5.45;;
71836;SDS011;59686;51.716;7.016;2023-04-24T07:12:15;6.45;;;5.05;;
71836;SDS011;59686;51.716;7.016;2023-04-24T07:14:42;7.75;;;5.07;;
71836;SDS011;59686;51.716;7.016;2023-04-24T07:17:08;6.63;;;5.22;;
71836;SDS011;59686;51.716;7.016;2023-04-24T07:19:33;5.97;;;5.05;;
71836;SDS011;59686;51.716;7.016;2023-04-24T07:22:02;5.60;;;5.10;;
71836;SDS011;59686;51.716;7.016;2023-04-24T07:24:28;5.28;;;4.75;;
71836;SDS011;59686;51.716;7.016;2023-04-24T07:26:56;8.05;;;4.97;;
71836;SDS011;59686;51.716;7.016;2023-04-24T07:29:22;6.72;;;5.07;;
71836;SDS011;59686;51.716;7.016;2023-04-24T07:31:47;5.40;;;4.90;;
71836;SDS011;59686;51.716;7.016;2023-04-24T07:34:13;4.90;;;4.38;;
71836;SDS011;59686;51.716;7.016;2023-04-24T07:36:40;5.80;;;4.45;;
71836;SDS011;59686;51.716;7.016;2023-04-24T07:39:06;4.90;;;4.18;;
71836;SDS011;59686;51.716;7.016;2023-04-24T07:41:33;4.63;;;3.88;;
71836;SDS011;59686;51.716;7.016;2023-04-24T07:43:58;5.60;;;4.05;;
71836;SDS011;59686;51.716;7.016;2023-04-24T07:46:24;4.10;;;3.60;;
71836;SDS011;59686;51.716;7.016;2023-04-24T07:51:20;4.72;;;2.92;;
71836;SDS011;59686;51.716;7.016;2023-04-24T07:53:45;4.07;;;3.03;;
71836;SDS011;59686;51.716;7.016;2023-04-24T07:56:11;4.15;;;2.90;;
71836;SDS011;59686;51.716;7.016;2023-04-24T07:58:37;4.07;;;2.80;;
71836;SDS011;59686;51.716;7.016;2023-04-24T08:01:02;5.60;;;2.95;;
71836;SDS011;59686;51.716;7.016;2023-04-24T08:03:28;3.42;;;2.40;;
71836;SDS011;59686;51.716;7.016;2023-04-24T08:05:53;3.40;;;2.50;;
71836;SDS011;59686;51.716;7.016;2023-04-24T08:08:21;2.67;;;2.47;;
71836;SDS011;59686;51.716;7.016;2023-04-24T08:10:48;3.08;;;2.45;;
71836;SDS011;59686;51.716;7.016;2023-04-24T08:13:14;2.88;;;2.20;;
71836;SDS011;59686;51.716;7.016;2023-04-24T08:15:39;2.92;;;2.42;;
71836;SDS011;59686;51.716;7.016;2023-04-24T08:18:05;4.35;;;2.00;;
71836;SDS011;59686;51.716;7.016;2023-04-24T08:20:31;2.00;;;1.80;;
71836;SDS011;59686;51.716;7.016;2023-04-24T08:22:56;2.38;;;1.75;;
71836;SDS011;59686;51.716;7.016;2023-04-24T08:25:22;3.10;;;1.80;;
71836;SDS011;59686;51.716;7.016;2023-04-24T08:27:49;2.83;;;2.00;;
71836;SDS011;59686;51.716;7.016;2023-04-24T08:30:15;2.97;;;1.80;;
71836;SDS011;59686;51.716;7.016;2023-04-24T08:32:41;1.60;;;1.50;;
71836;SDS011;59686;51.716;7.016;2023-04-24T08:35:07;1.70;;;1.60;;
71836;SDS011;59686;51.716;7.016;2023-04-24T08:37:34;2.70;;;1.42;;
71836;SDS011;59686;51.716;7.016;2023-04-24T08:40:00;3.20;;;1.48;;
71836;SDS011;59686;51.716;7.016;2023-04-24T08:42:30;1.95;;;1.33;;
71836;SDS011;59686;51.716;7.016;2023-04-24T08:44:58;1.77;;;1.50;;
71836;SDS011;59686;51.716;7.016;2023-04-24T08:47:24;1.58;;;1.40;;
71836;SDS011;59686;51.716;7.016;2023-04-24T08:49:51;1.98;;;1.58;;
71836;SDS011;59686;51.716;7.016;2023-04-24T08:52:25;2.08;;;1.40;;
71836;SDS011;59686;51.716;7.016;2023-04-24T08:54:51;2.15;;;1.50;;
71836;SDS011;59686;51.716;7.016;2023-04-24T08:57:18;1.70;;;1.48;;
71836;SDS011;59686;51.716;7.016;2023-04-24T08:59:44;2.65;;;1.48;;
71836;SDS011;59686;51.716;7.016;2023-04-24T09:02:11;1.60;;;1.40;;
71836;SDS011;59686;51.716;7.016;2023-04-24T09:04:38;1.90;;;1.40;;
71836;SDS011;59686;51.716;7.016;2023-04-24T09:07:05;1.40;;;1.30;;
71836;SDS011;59686;51.716;7.016;2023-04-24T09:09:33;2.00;;;1.52;;
71836;SDS011;59686;51.716;7.016;2023-04-24T09:12:00;3.42;;;1.30;;
71836;SDS011;59686;51.716;7.016;2023-04-24T09:14:27;1.90;;;1.30;;
71836;SDS011;59686;51.716;7.016;2023-04-24T09:16:53;1.50;;;1.40;;
71836;SDS011;59686;51.716;7.016;2023-04-24T09:19:18;1.92;;;1.40;;
71836;SDS011;59686;51.716;7.016;2023-04-24T09:21:47;2.53;;;1.42;;
71836;SDS011;59686;51.716;7.016;2023-04-24T09:24:20;1.92;;;1.50;;
71836;SDS011;59686;51.716;7.016;2023-04-24T09:26:49;1.67;;;1.50;;
71836;SDS011;59686;51.716;7.016;2023-04-24T09:29:24;1.65;;;1.55;;
71836;SDS011;59686;51.716;7.016;2023-04-24T09:31:50;2.13;;;1.33;;
71836;SDS011;59686;51.716;7.016;2023-04-24T09:34:19;1.67;;;1.40;;
71836;SDS011;59686;51.716;7.016;2023-04-24T09:36:50;1.60;;;1.50;;
71836;SDS011;59686;51.716;7.016;2023-04-24T09:39:17;1.88;;;1.63;;
71836;SDS011;59686;51.716;7.016;2023-04-24T09:41:51;2.22;;;1.83;;
71836;SDS011;59686;51.716;7.016;2023-04-24T09:44:26;1.50;;;1.40;;
71836;SDS011;59686;51.716;7.016;2023-04-24T09:46:53;2.78;;;1.95;;
71836;SDS011;59686;51.716;7.016;2023-04-24T09:49:27;3.33;;;1.80;;
71836;SDS011;59686;51.716;7.016;2023-04-24T09:52:09;2.63;;;2.40;;
71836;SDS011;59686;51.716;7.016;2023-04-24T09:54:36;3.80;;;2.40;;
71836;SDS011;59686;51.716;7.016;2023-04-24T09:57:15;3.95;;;2.88;;
71836;SDS011;59686;51.716;7.016;2023-04-24T09:59:45;3.70;;;2.83;;
71836;SDS011;59686;51.716;7.016;2023-04-24T10:02:20;4.20;;;2.60;;
71836;SDS011;59686;51.716;7.016;2023-04-24T10:04:56;3.35;;;2.80;;
71836;SDS011;59686;51.716;7.016;2023-04-24T10:07:33;3.75;;;2.80;;
71836;SDS011;59686;51.716;7.016;2023-04-24T10:09:58;3.75;;;2.92;;
71836;SDS011;59686;51.716;7.016;2023-04-24T10:12:24;4.78;;;3.03;;
71836;SDS011;59686;51.716;7.016;2023-04-24T10:14:51;3.30;;;2.90;;
71836;SDS011;59686;51.716;7.016;2023-04-24T10:17:18;4.28;;;2.83;;
71836;SDS011;59686;51.716;7.016;2023-04-24T10:19:45;4.68;;;2.97;;
71836;SDS011;59686;51.716;7.016;2023-04-24T10:22:12;4.20;;;2.95;;
71836;SDS011;59686;51.716;7.016;2023-04-24T10:24:40;4.80;;;3.20;;
71836;SDS011;59686;51.716;7.016;2023-04-24T10:27:07;3.83;;;3.38;;
71836;SDS011;59686;51.716;7.016;2023-04-24T10:29:34;3.42;;;2.90;;
71836;SDS011;59686;51.716;7.016;2023-04-24T10:32:00;3.70;;;2.75;;
71836;SDS011;59686;51.716;7.016;2023-04-24T10:34:26;3.60;;;3.10;;
71836;SDS011;59686;51.716;7.016;2023-04-24T10:36:52;4.40;;;3.17;;
71836;SDS011;59686;51.716;7.016;2023-04-24T10:39:20;4.18;;;3.10;;
71836;SDS011;59686;51.716;7.016;2023-04-24T10:41:48;4.45;;;3.10;;
71836;SDS011;59686;51.716;7.016;2023-04-24T10:44:14;5.80;;;3.22;;
71836;SDS011;59686;51.716;7.016;2023-04-24T10:46:44;7.28;;;3.45;;
71836;SDS011;59686;51.716;7.016;2023-04-24T10:49:11;4.90;;;2.92;;
71836;SDS011;59686;51.716;7.016;2023-04-24T10:51:49;4.63;;;2.85;;
71836;SDS011;59686;51.716;7.016;2023-04-24T10:54:34;5.45;;;3.03;;
71836;SDS011;59686;51.716;7.016;2023-04-24T10:57:34;3.22;;;2.70;;
71836;SDS011;59686;51.716;7.016;2023-04-24T11:00:15;4.65;;;3.08;;
71836;SDS011;59686;51.716;7.016;2023-04-24T11:02:45;4.05;;;2.70;;
71836;SDS011;59686;51.716;7.016;2023-04-24T11:05:14;4.88;;;2.85;;
71836;SDS011;59686;51.716;7.016;2023-04-24T11:16:28;5.70;;;3.20;;
71836;SDS011;59686;51.716;7.016;2023-04-24T11:19:02;4.50;;;2.58;;
71836;SDS011;59686;51.716;7.016;2023-04-24T11:21:31;6.60;;;2.85;;
71836;SDS011;59686;51.716;7.016;2023-04-24T11:27:14;7.07;;;2.80;;
71836;SDS011;59686;51.716;7.016;2023-04-24T11:32:17;8.17;;;2.87;;
71836;SDS011;59686;51.716;7.016;2023-04-24T11:34:51;9.77;;;3.05;;
71836;SDS011;59686;51.716;7.016;2023-04-24T11:40:22;10.00;;;3.42;;
71836;SDS011;59686;51.716;7.016;2023-04-24T11:42:52;8.73;;;3.47;;
71836;SDS011;59686;51.716;7.016;2023-04-24T11:45:24;9.10;;;3.22;;
71836;SDS011;59686;51.716;7.016;2023-04-24T11:47:52;7.60;;;2.75;;
71836;SDS011;59686;51.716;7.016;2023-04-24T11:50:18;11.48;;;3.30;;
71836;SDS011;59686;51.716;7.016;2023-04-24T11:52:46;8.13;;;3.00;;
71836;SDS011;59686;51.716;7.016;2023-04-24T12:00:15;10.57;;;3.63;;
71836;SDS011;59686;51.716;7.016;2023-04-24T12:02:41;7.25;;;3.45;;
71836;SDS011;59686;51.716;7.016;2023-04-24T12:05:07;7.97;;;3.13;;
71836;SDS011;59686;51.716;7.016;2023-04-24T12:07:39;5.95;;;2.58;;
71836;SDS011;59686;51.716;7.016;2023-04-24T12:10:07;5.47;;;2.80;;
71836;SDS011;59686;51.716;7.016;2023-04-24T12:12:34;5.78;;;2.95;;
71836;SDS011;59686;51.716;7.016;2023-04-24T12:15:00;7.40;;;2.55;;
71836;SDS011;59686;51.716;7.016;2023-04-24T12:17:31;3.23;;;2.13;;
71836;SDS011;59686;51.716;7.016;2023-04-24T12:20:03;6.53;;;2.87;;
71836;SDS011;59686;51.716;7.016;2023-04-24T12:25:18;5.20;;;2.50;;
71836;SDS011;59686;51.716;7.016;2023-04-24T12:27:44;9.17;;;2.40;;
71836;SDS011;59686;51.716;7.016;2023-04-24T12:30:15;6.22;;;2.50;;
71836;SDS011;59686;51.716;7.016;2023-04-24T12:32:42;7.23;;;2.67;;
71836;SDS011;59686;51.716;7.016;2023-04-24T12:35:09;5.53;;;2.20;;
71836;SDS011;59686;51.716;7.016;2023-04-24T12:37:34;5.68;;;2.28;;
71836;SDS011;59686;51.716;7.016;2023-04-24T12:40:05;6.20;;;2.17;;
71836;SDS011;59686;51.716;7.016;2023-04-24T12:42:33;4.25;;;1.98;;
71836;SDS011;59686;51.716;7.016;2023-04-24T12:45:04;3.77;;;2.10;;
71836;SDS011;59686;51.716;7.016;2023-04-24T12:47:31;4.75;;;2.03;;
71836;SDS011;59686;51.716;7.016;2023-04-24T12:49:57;5.37;;;1.90;;
71836;SDS011;59686;51.716;7.016;2023-04-24T12:52:24;4.53;;;1.83;;
71836;SDS011;59686;51.716;7.016;2023-04-24T12:54:53;5.10;;;1.73;;
71836;SDS011;59686;51.716;7.016;2023-04-24T12:57:20;3.93;;;1.50;;
71836;SDS011;59686;51.716;7.016;2023-04-24T12:59:47;6.30;;;1.88;;
71836;SDS011;59686;51.716;7.016;2023-04-24T13:02:16;5.27;;;2.10;;
71836;SDS011;59686;51.716;7.016;2023-04-24T13:04:46;2.97;;;2.00;;
71836;SDS011;59686;51.716;7.016;2023-04-24T13:07:12;4.77;;;1.97;;
71836;SDS011;59686;51.716;7.016;2023-04-24T13:09:39;4.35;;;1.70;;
71836;SDS011;59686;51.716;7.016;2023-04-24T13:12:06;4.03;;;2.10;;
71836;SDS011;59686;51.716;7.016;2023-04-24T13:14:32;3.73;;;1.90;;
71836;SDS011;59686;51.716;7.016;2023-04-24T13:16:58;4.07;;;1.57;;
71836;SDS011;59686;51.716;7.016;2023-04-24T13:19:26;3.23;;;1.70;;
71836;SDS011;59686;51.716;7.016;2023-04-24T13:21:53;2.40;;;1.27;;
71836;SDS011;59686;51.716;7.016;2023-04-24T13:24:20;3.80;;;1.70;;
71836;SDS011;59686;51.716;7.016;2023-04-24T13:26:50;4.40;;;2.10;;
71836;SDS011;59686;51.716;7.016;2023-04-24T13:29:16;3.23;;;1.73;;
71836;SDS011;59686;51.716;7.016;2023-04-24T13:32:00;3.67;;;1.60;;
71836;SDS011;59686;51.716;7.016;2023-04-24T13:34:26;4.37;;;1.77;;
71836;SDS011;59686;51.716;7.016;2023-04-24T13:36:52;5.73;;;1.80;;
71836;SDS011;59686;51.716;7.016;2023-04-24T13:39:20;3.13;;;1.73;;
71836;SDS011;59686;51.716;7.016;2023-04-24T13:41:46;4.67;;;1.60;;
71836;SDS011;59686;51.716;7.016;2023-04-24T13:44:13;4.00;;;1.50;;
71836;SDS011;59686;51.716;7.016;2023-04-24T13:46:40;6.55;;;1.70;;
71836;SDS011;59686;51.716;7.016;2023-04-24T13:49:06;4.23;;;1.77;;
71836;SDS011;59686;51.716;7.016;2023-04-24T13:51:31;3.67;;;1.63;;
71836;SDS011;59686;51.716;7.016;2023-04-24T13:53:57;2.97;;;1.70;;
71836;SDS011;59686;51.716;7.016;2023-04-24T13:56:24;2.97;;;2.20;;
71836;SDS011;59686;51.716;7.016;2023-04-24T13:59:02;6.07;;;2.47;;
71836;SDS011;59686;51.716;7.016;2023-04-24T14:01:28;5.43;;;2.70;;
71836;SDS011;59686;51.716;7.016;2023-04-24T14:03:54;3.47;;;2.30;;
71836;SDS011;59686;51.716;7.016;2023-04-24T14:06:21;5.28;;;2.28;;
71836;SDS011;59686;51.716;7.016;2023-04-24T14:08:48;2.40;;;2.00;;
71836;SDS011;59686;51.716;7.016;2023-04-24T14:11:15;3.53;;;2.10;;
71836;SDS011;59686;51.716;7.016;2023-04-24T14:13:41;8.13;;;2.10;;
71836;SDS011;59686;51.716;7.016;2023-04-24T14:16:08;3.03;;;1.93;;
71836;SDS011;59686;51.716;7.016;2023-04-24T14:18:35;6.03;;;1.93;;
71836;SDS011;59686;51.716;7.016;2023-04-24T14:21:02;4.50;;;1.73;;
71836;SDS011;59686;51.716;7.016;2023-04-24T14:23:28;4.40;;;2.00;;
71836;SDS011;59686;51.716;7.016;2023-04-24T14:25:54;3.07;;;1.53;;
71836;SDS011;59686;51.716;7.016;2023-04-24T14:28:19;3.10;;;1.83;;
71836;SDS011;59686;51.716;7.016;2023-04-24T14:30:46;2.67;;;1.70;;
71836;SDS011;59686;51.716;7.016;2023-04-24T14:33:12;2.70;;;1.77;;
71836;SDS011;59686;51.716;7.016;2023-04-24T14:35:38;3.27;;;1.53;;
71836;SDS011;59686;51.716;7.016;2023-04-24T14:38:05;3.10;;;1.42;;
71836;SDS011;59686;51.716;7.016;2023-04-24T14:40:31;4.60;;;1.73;;
71836;SDS011;59686;51.716;7.016;2023-04-24T14:42:57;2.87;;;1.60;;
71836;SDS011;59686;51.716;7.016;2023-04-24T14:45:24;3.33;;;1.40;;
71836;SDS011;59686;51.716;7.016;2023-04-24T14:47:50;3.80;;;1.70;;
71836;SDS011;59686;51.716;7.016;2023-04-24T14:50:16;3.60;;;1.40;;
71836;SDS011;59686;51.716;7.016;2023-04-24T14:52:41;3.67;;;1.60;;
71836;SDS011;59686;51.716;7.016;2023-04-24T14:55:07;2.70;;;1.60;;
71836;SDS011;59686;51.716;7.016;2023-04-24T14:57:33;3.87;;;1.40;;
71836;SDS011;59686;51.716;7.016;2023-04-24T15:00:01;3.17;;;1.60;;
71836;SDS011;59686;51.716;7.016;2023-04-24T15:02:28;5.87;;;2.17;;
71836;SDS011;59686;51.716;7.016;2023-04-24T15:04:54;3.07;;;1.63;;
71836;SDS011;59686;51.716;7.016;2023-04-24T15:07:20;4.10;;;1.70;;
71836;SDS011;59686;51.716;7.016;2023-04-24T15:09:58;4.07;;;1.70;;
71836;SDS011;59686;51.716;7.016;2023-04-24T15:12:23;2.85;;;1.60;;
71836;SDS011;59686;51.716;7.016;2023-04-24T15:14:49;3.90;;;1.90;;